Lorain, OH (44054)

6:42 PM EDT on September 30, 2014 (GMT -0400)
KOHSHEFF3 | Change Station
CLOSE
Current Station
Personal Weather Station
Location: Sheffield Lake, OH
Elevation: 608 ft
Nearby Weather Stations

Elev 608 ft 41.49 °N, 82.09 °W | Updated 8 seconds ago

Overcast
Overcast
61.3 °F
Feels Like 61.3 °F
N
0.0
Wind Variable Wind from North
Gusts 9.0 mph

Today
High -- | Low -- °F
--% Chance of Precip.
Yesterday
High -- | Low -- °F
Precip. -- in
7:24 AM 7:11 PM
Waxing Crescent, 41% visible
Pressure 29.96 in
Visibility 10.0 miles
Clouds Few 2100 ft
Mostly Cloudy 2700 ft
Overcast 3600 ft
Dew Point 57 °F
Humidity 85%
Rainfall 0.16 in
Snow Depth Not available.
UV 0 out of 12
Pollen .40 out of 12
Ozone Good
PM2.5 Good
Flu Activity Not available.
SPECI KLPR 302234Z AUTO 36006KT 10SM FEW021 BKN027 OVC036 16/12 A2996 RMK AO2 T01610117 TSNO $

More Conditions Fewer Conditions

Pressure 29.96 in
Visibility 10.0 miles
Clouds Few 2100 ft
Mostly Cloudy 2700 ft
Overcast 3600 ft
Dew Point 57 °F
Humidity 85%
Rainfall 0.16 in
Snow Depth Not available.
UV 0 out of 12
Pollen .40 out of 12
Ozone Good
PM2.5 Good
Flu Activity Not available.
SPECI KLPR 302234Z AUTO 36006KT 10SM FEW021 BKN027 OVC036 16/12 A2996 RMK AO2 T01610117 TSNO $

More Conditions Fewer Conditions

10-Day Weather Forecast

Almanac

Astronomy

Sep. 30, 2014 Rise Set
Actual Time 7:24 AM EDT 7:11 PM EDT
Civil Twilight 6:56 AM EDT 7:39 PM EDT
Nautical Twilight 6:24 AM EDT 8:11 PM EDT
Astronomical Twilight 5:51 AM EDT 8:43 PM EDT
Moon 1:34 PM EDT 11:37 PM EDT
Length of Visible Light 12h 42m
Length of Day
11h 47m
Tomorrow will be 2m 45s shorter.
Waxing Crescent, 41% of the Moon is Illuminated
Today
Waxing Crescent
Oct 1
First Quarter
Oct 8
Full
Oct 15
Last Quarter
Oct 23
New

Today's Extremes

State Highs State Lows

Community

WunderPhotos

Upload Photos

1,757,767 photos uploaded!

Nearby

Air Quality

  Air Quality AQ Index Pollutant
Yesterday Moderate
PM2.5
Yesterday Good
OZONE
Current Good
OZONE
Current Good
PM2.5
Tuesday Moderate
PM2.5
Tuesday Good
OZONE
Wednesday Moderate
PM2.5
Wednesday Good
OZONE
Thursday Moderate
PM2.5
Thursday Good
OZONE

Snow Depth

Station Depth Elevation
No new snow has been reported.

Earthquake Activity

City Distance Mag. Time & Date
No recent earthquake activity has been reported nearby.
Minimum magnitude displayed is 2.5.

Coastal Water Temperatures

Place Temperature
Cleveland, OH 66.0 °F
Marblehead, OH 64.9 °F
Fairport, OH 66.9 °F

Nearby Weather Stations